sensor_id;sensor_type;location;lat;lon;timestamp;temperature;humidity
7290;DHT22;3686;52.678;13.252;2022-07-30T00:02:25;20.20;1.00
7290;DHT22;3686;52.678;13.252;2022-07-30T00:04:51;20.10;1.00
7290;DHT22;3686;52.678;13.252;2022-07-30T00:07:17;20.10;1.00
7290;DHT22;3686;52.678;13.252;2022-07-30T00:09:42;20.10;1.00
7290;DHT22;3686;52.678;13.252;2022-07-30T00:12:08;20.10;1.00
7290;DHT22;3686;52.678;13.252;2022-07-30T00:14:34;20.10;1.00
7290;DHT22;3686;52.678;13.252;2022-07-30T00:17:01;20.10;1.00
7290;DHT22;3686;52.678;13.252;2022-07-30T00:19:27;20.00;1.00
7290;DHT22;3686;52.678;13.252;2022-07-30T00:21:53;19.90;1.00
7290;DHT22;3686;52.678;13.252;2022-07-30T00:24:21;19.90;7.20
7290;DHT22;3686;52.678;13.252;2022-07-30T00:26:47;19.80;1.00
7290;DHT22;3686;52.678;13.252;2022-07-30T00:29:13;19.80;1.00
7290;DHT22;3686;52.678;13.252;2022-07-30T00:31:39;19.70;1.00
7290;DHT22;3686;52.678;13.252;2022-07-30T00:34:04;19.60;1.00
7290;DHT22;3686;52.678;13.252;2022-07-30T00:36:30;19.60;1.00
7290;DHT22;3686;52.678;13.252;2022-07-30T00:38:56;19.50;1.00
7290;DHT22;3686;52.678;13.252;2022-07-30T00:41:22;19.50;1.00
7290;DHT22;3686;52.678;13.252;2022-07-30T00:43:48;19.50;1.00
7290;DHT22;3686;52.678;13.252;2022-07-30T00:46:14;19.50;1.00
7290;DHT22;3686;52.678;13.252;2022-07-30T00:48:41;19.50;1.00
7290;DHT22;3686;52.678;13.252;2022-07-30T00:51:06;19.50;1.00
7290;DHT22;3686;52.678;13.252;2022-07-30T00:53:33;19.50;1.00
7290;DHT22;3686;52.678;13.252;2022-07-30T00:55:59;19.50;1.00
7290;DHT22;3686;52.678;13.252;2022-07-30T00:58:25;19.50;1.00
7290;DHT22;3686;52.678;13.252;2022-07-30T01:00:51;19.60;1.00
7290;DHT22;3686;52.678;13.252;2022-07-30T01:03:16;19.60;1.00
7290;DHT22;3686;52.678;13.252;2022-07-30T01:05:42;19.60;1.00
7290;DHT22;3686;52.678;13.252;2022-07-30T01:08:08;19.60;1.00
7290;DHT22;3686;52.678;13.252;2022-07-30T01:10:33;19.50;1.00
7290;DHT22;3686;52.678;13.252;2022-07-30T01:12:59;19.50;1.00
7290;DHT22;3686;52.678;13.252;2022-07-30T01:15:26;19.40;1.00
7290;DHT22;3686;52.678;13.252;2022-07-30T01:17:55;19.40;1.00
7290;DHT22;3686;52.678;13.252;2022-07-30T01:20:37;19.40;1.00
7290;DHT22;3686;52.678;13.252;2022-07-30T01:23:30;19.40;1.00
7290;DHT22;3686;52.678;13.252;2022-07-30T01:26:04;19.40;1.00
7290;DHT22;3686;52.678;13.252;2022-07-30T01:28:35;19.30;1.00
7290;DHT22;3686;52.678;13.252;2022-07-30T01:31:03;19.30;1.00
7290;DHT22;3686;52.678;13.252;2022-07-30T01:33:30;19.30;1.00
7290;DHT22;3686;52.678;13.252;2022-07-30T01:35:58;19.30;1.00
7290;DHT22;3686;52.678;13.252;2022-07-30T01:38:25;19.30;1.00
7290;DHT22;3686;52.678;13.252;2022-07-30T01:40:53;19.30;1.00
7290;DHT22;3686;52.678;13.252;2022-07-30T01:43:21;19.30;1.00
7290;DHT22;3686;52.678;13.252;2022-07-30T01:45:48;19.20;1.00
7290;DHT22;3686;52.678;13.252;2022-07-30T01:48:16;19.20;1.70
7290;DHT22;3686;52.678;13.252;2022-07-30T01:50:45;19.20;1.30
7290;DHT22;3686;52.678;13.252;2022-07-30T01:53:15;19.10;1.40
7290;DHT22;3686;52.678;13.252;2022-07-30T01:55:43;19.00;12.30
7290;DHT22;3686;52.678;13.252;2022-07-30T01:58:09;19.10;1.40
7290;DHT22;3686;52.678;13.252;2022-07-30T02:00:38;19.00;1.00
7290;DHT22;3686;52.678;13.252;2022-07-30T02:03:05;19.10;1.00
7290;DHT22;3686;52.678;13.252;2022-07-30T02:05:34;19.10;1.50
7290;DHT22;3686;52.678;13.252;2022-07-30T02:08:06;19.10;1.00
7290;DHT22;3686;52.678;13.252;2022-07-30T02:13:21;19.10;1.00
7290;DHT22;3686;52.678;13.252;2022-07-30T02:15:58;19.10;1.00
7290;DHT22;3686;52.678;13.252;2022-07-30T02:18:47;19.10;1.70
7290;DHT22;3686;52.678;13.252;2022-07-30T02:21:17;19.10;2.40
7290;DHT22;3686;52.678;13.252;2022-07-30T02:23:45;19.10;1.70
7290;DHT22;3686;52.678;13.252;2022-07-30T02:26:13;19.10;2.80
7290;DHT22;3686;52.678;13.252;2022-07-30T02:28:44;19.00;3.00
7290;DHT22;3686;52.678;13.252;2022-07-30T02:31:12;18.90;2.50
7290;DHT22;3686;52.678;13.252;2022-07-30T02:33:42;18.90;2.50
7290;DHT22;3686;52.678;13.252;2022-07-30T02:36:09;18.90;3.50
7290;DHT22;3686;52.678;13.252;2022-07-30T02:38:39;18.80;3.50
7290;DHT22;3686;52.678;13.252;2022-07-30T02:41:07;18.80;3.10
7290;DHT22;3686;52.678;13.252;2022-07-30T02:43:34;18.80;3.90
7290;DHT22;3686;52.678;13.252;2022-07-30T02:46:02;18.80;3.90
7290;DHT22;3686;52.678;13.252;2022-07-30T02:48:29;18.70;3.20
7290;DHT22;3686;52.678;13.252;2022-07-30T02:50:56;18.70;3.50
7290;DHT22;3686;52.678;13.252;2022-07-30T02:53:23;18.70;3.90
7290;DHT22;3686;52.678;13.252;2022-07-30T02:55:52;18.70;4.10
7290;DHT22;3686;52.678;13.252;2022-07-30T02:58:23;18.70;4.80
7290;DHT22;3686;52.678;13.252;2022-07-30T03:00:52;18.70;5.10
7290;DHT22;3686;52.678;13.252;2022-07-30T03:03:19;18.60;4.60
7290;DHT22;3686;52.678;13.252;2022-07-30T03:05:45;18.60;5.40
7290;DHT22;3686;52.678;13.252;2022-07-30T03:08:15;18.60;17.50
7290;DHT22;3686;52.678;13.252;2022-07-30T03:10:42;18.50;5.50
7290;DHT22;3686;52.678;13.252;2022-07-30T03:13:09;18.50;6.20
7290;DHT22;3686;52.678;13.252;2022-07-30T03:15:36;18.50;6.50
7290;DHT22;3686;52.678;13.252;2022-07-30T03:18:08;18.40;7.20
7290;DHT22;3686;52.678;13.252;2022-07-30T03:20:36;18.30;6.80
7290;DHT22;3686;52.678;13.252;2022-07-30T03:23:03;18.30;7.00
7290;DHT22;3686;52.678;13.252;2022-07-30T03:25:30;18.30;6.70
7290;DHT22;3686;52.678;13.252;2022-07-30T03:27:59;18.30;7.60
7290;DHT22;3686;52.678;13.252;2022-07-30T03:30:26;18.40;8.80
7290;DHT22;3686;52.678;13.252;2022-07-30T03:32:54;18.30;8.70
7290;DHT22;3686;52.678;13.252;2022-07-30T03:35:21;18.30;10.00
7290;DHT22;3686;52.678;13.252;2022-07-30T03:37:49;18.20;10.80
7290;DHT22;3686;52.678;13.252;2022-07-30T03:40:15;18.20;10.20
7290;DHT22;3686;52.678;13.252;2022-07-30T03:42:41;18.20;11.50
7290;DHT22;3686;52.678;13.252;2022-07-30T03:45:08;18.20;12.30
7290;DHT22;3686;52.678;13.252;2022-07-30T03:47:37;18.20;11.70
7290;DHT22;3686;52.678;13.252;2022-07-30T03:50:04;18.20;13.60
7290;DHT22;3686;52.678;13.252;2022-07-30T03:52:32;18.20;12.90
7290;DHT22;3686;52.678;13.252;2022-07-30T03:54:59;18.20;12.90
7290;DHT22;3686;52.678;13.252;2022-07-30T03:57:25;18.10;15.00
7290;DHT22;3686;52.678;13.252;2022-07-30T03:59:51;18.00;15.40
7290;DHT22;3686;52.678;13.252;2022-07-30T04:02:17;18.00;17.00
7290;DHT22;3686;52.678;13.252;2022-07-30T04:04:42;18.00;16.60
7290;DHT22;3686;52.678;13.252;2022-07-30T04:07:08;18.00;16.80
7290;DHT22;3686;52.678;13.252;2022-07-30T04:09:34;18.00;17.50
7290;DHT22;3686;52.678;13.252;2022-07-30T04:12:00;18.00;18.20
7290;DHT22;3686;52.678;13.252;2022-07-30T04:14:26;18.00;21.00
7290;DHT22;3686;52.678;13.252;2022-07-30T04:17:01;18.10;23.90
7290;DHT22;3686;52.678;13.252;2022-07-30T04:19:34;18.00;25.90
7290;DHT22;3686;52.678;13.252;2022-07-30T04:22:02;18.00;27.50
7290;DHT22;3686;52.678;13.252;2022-07-30T04:24:30;18.00;26.20
7290;DHT22;3686;52.678;13.252;2022-07-30T04:26:57;18.00;26.50
7290;DHT22;3686;52.678;13.252;2022-07-30T04:29:24;18.00;28.00
7290;DHT22;3686;52.678;13.252;2022-07-30T04:31:51;18.00;29.40
7290;DHT22;3686;52.678;13.252;2022-07-30T04:34:17;18.00;33.70
7290;DHT22;3686;52.678;13.252;2022-07-30T04:36:43;18.00;37.40
7290;DHT22;3686;52.678;13.252;2022-07-30T04:39:09;18.00;41.10
7290;DHT22;3686;52.678;13.252;2022-07-30T04:41:35;18.00;46.50
7290;DHT22;3686;52.678;13.252;2022-07-30T04:44:02;18.00;45.10
7290;DHT22;3686;52.678;13.252;2022-07-30T04:46:27;18.00;44.30
7290;DHT22;3686;52.678;13.252;2022-07-30T04:48:53;18.00;45.10
7290;DHT22;3686;52.678;13.252;2022-07-30T04:51:23;18.10;48.20
7290;DHT22;3686;52.678;13.252;2022-07-30T04:53:51;18.10;54.50
7290;DHT22;3686;52.678;13.252;2022-07-30T04:56:18;18.10;59.30
7290;DHT22;3686;52.678;13.252;2022-07-30T04:58:45;18.20;61.90
7290;DHT22;3686;52.678;13.252;2022-07-30T05:01:16;18.10;67.60
7290;DHT22;3686;52.678;13.252;2022-07-30T05:03:43;18.10;70.80
7290;DHT22;3686;52.678;13.252;2022-07-30T05:06:11;18.10;67.70
7290;DHT22;3686;52.678;13.252;2022-07-30T05:08:37;18.20;63.20
7290;DHT22;3686;52.678;13.252;2022-07-30T05:11:04;18.20;64.90
7290;DHT22;3686;52.678;13.252;2022-07-30T05:13:29;18.20;74.30
7290;DHT22;3686;52.678;13.252;2022-07-30T05:15:55;18.30;71.40
7290;DHT22;3686;52.678;13.252;2022-07-30T05:18:21;18.30;71.50
7290;DHT22;3686;52.678;13.252;2022-07-30T05:20:46;18.40;70.30
7290;DHT22;3686;52.678;13.252;2022-07-30T05:23:12;18.40;69.40
7290;DHT22;3686;52.678;13.252;2022-07-30T05:25:38;18.50;72.20
7290;DHT22;3686;52.678;13.252;2022-07-30T05:28:03;18.50;68.40
7290;DHT22;3686;52.678;13.252;2022-07-30T05:30:29;18.60;66.00
7290;DHT22;3686;52.678;13.252;2022-07-30T05:32:55;18.60;67.70
7290;DHT22;3686;52.678;13.252;2022-07-30T05:35:20;18.70;65.40
7290;DHT22;3686;52.678;13.252;2022-07-30T05:37:46;18.70;65.00
7290;DHT22;3686;52.678;13.252;2022-07-30T05:40:12;18.70;63.40
7290;DHT22;3686;52.678;13.252;2022-07-30T05:42:37;18.70;63.90
7290;DHT22;3686;52.678;13.252;2022-07-30T05:45:03;18.70;64.60
7290;DHT22;3686;52.678;13.252;2022-07-30T05:47:29;18.70;65.50
7290;DHT22;3686;52.678;13.252;2022-07-30T05:49:54;18.70;65.10
7290;DHT22;3686;52.678;13.252;2022-07-30T05:52:20;18.80;70.20
7290;DHT22;3686;52.678;13.252;2022-07-30T05:54:46;18.80;69.10
7290;DHT22;3686;52.678;13.252;2022-07-30T05:57:11;18.80;69.40
7290;DHT22;3686;52.678;13.252;2022-07-30T05:59:37;18.80;69.20
7290;DHT22;3686;52.678;13.252;2022-07-30T06:02:03;18.90;67.00
7290;DHT22;3686;52.678;13.252;2022-07-30T06:04:31;18.90;67.70
7290;DHT22;3686;52.678;13.252;2022-07-30T06:06:56;18.90;70.40
7290;DHT22;3686;52.678;13.252;2022-07-30T06:09:22;18.90;68.90
7290;DHT22;3686;52.678;13.252;2022-07-30T06:11:48;19.00;69.10
7290;DHT22;3686;52.678;13.252;2022-07-30T06:14:13;18.90;69.00
7290;DHT22;3686;52.678;13.252;2022-07-30T06:16:39;18.90;72.00
7290;DHT22;3686;52.678;13.252;2022-07-30T06:19:04;18.90;68.70
7290;DHT22;3686;52.678;13.252;2022-07-30T06:21:30;19.00;75.00
7290;DHT22;3686;52.678;13.252;2022-07-30T06:23:56;19.00;73.20
7290;DHT22;3686;52.678;13.252;2022-07-30T06:26:21;19.00;72.20
7290;DHT22;3686;52.678;13.252;2022-07-30T06:28:47;19.10;71.30
7290;DHT22;3686;52.678;13.252;2022-07-30T06:31:13;19.10;70.60
7290;DHT22;3686;52.678;13.252;2022-07-30T06:33:39;19.20;70.50
7290;DHT22;3686;52.678;13.252;2022-07-30T06:36:05;19.20;75.50
7290;DHT22;3686;52.678;13.252;2022-07-30T06:38:31;19.20;75.40
7290;DHT22;3686;52.678;13.252;2022-07-30T06:40:57;19.20;76.00
7290;DHT22;3686;52.678;13.252;2022-07-30T06:43:23;19.10;76.30
7290;DHT22;3686;52.678;13.252;2022-07-30T06:45:49;19.20;77.10
7290;DHT22;3686;52.678;13.252;2022-07-30T06:48:14;19.20;81.00
7290;DHT22;3686;52.678;13.252;2022-07-30T06:50:40;19.30;79.60
7290;DHT22;3686;52.678;13.252;2022-07-30T06:53:06;19.30;79.10
7290;DHT22;3686;52.678;13.252;2022-07-30T06:55:32;19.40;76.30
7290;DHT22;3686;52.678;13.252;2022-07-30T06:57:58;19.40;76.10
7290;DHT22;3686;52.678;13.252;2022-07-30T07:00:23;19.40;77.20
7290;DHT22;3686;52.678;13.252;2022-07-30T07:02:49;19.40;93.70
7290;DHT22;3686;52.678;13.252;2022-07-30T07:05:15;19.40;78.60
7290;DHT22;3686;52.678;13.252;2022-07-30T07:07:41;19.40;75.30
7290;DHT22;3686;52.678;13.252;2022-07-30T07:10:09;19.30;73.10
7290;DHT22;3686;52.678;13.252;2022-07-30T07:12:35;19.30;76.00
7290;DHT22;3686;52.678;13.252;2022-07-30T07:15:00;19.30;77.80
7290;DHT22;3686;52.678;13.252;2022-07-30T07:17:27;19.30;78.30
7290;DHT22;3686;52.678;13.252;2022-07-30T07:19:52;19.40;76.30
7290;DHT22;3686;52.678;13.252;2022-07-30T07:22:18;19.50;84.30
7290;DHT22;3686;52.678;13.252;2022-07-30T07:24:44;19.60;80.20
7290;DHT22;3686;52.678;13.252;2022-07-30T07:27:09;19.70;78.90
7290;DHT22;3686;52.678;13.252;2022-07-30T07:29:35;19.70;79.10
7290;DHT22;3686;52.678;13.252;2022-07-30T07:32:01;19.80;82.30
7290;DHT22;3686;52.678;13.252;2022-07-30T07:34:26;19.80;82.00
7290;DHT22;3686;52.678;13.252;2022-07-30T07:36:52;19.80;81.00
7290;DHT22;3686;52.678;13.252;2022-07-30T07:39:18;19.90;85.00
7290;DHT22;3686;52.678;13.252;2022-07-30T07:41:44;20.00;81.50
7290;DHT22;3686;52.678;13.252;2022-07-30T07:44:09;20.00;80.10
7290;DHT22;3686;52.678;13.252;2022-07-30T07:46:35;20.10;82.60
7290;DHT22;3686;52.678;13.252;2022-07-30T07:49:01;20.10;82.10
7290;DHT22;3686;52.678;13.252;2022-07-30T07:51:27;20.10;84.30
7290;DHT22;3686;52.678;13.252;2022-07-30T07:53:52;20.10;85.90
7290;DHT22;3686;52.678;13.252;2022-07-30T07:56:18;20.20;81.10
7290;DHT22;3686;52.678;13.252;2022-07-30T07:58:46;20.20;80.80
7290;DHT22;3686;52.678;13.252;2022-07-30T08:01:11;20.10;80.00
7290;DHT22;3686;52.678;13.252;2022-07-30T08:03:37;20.10;84.30
7290;DHT22;3686;52.678;13.252;2022-07-30T08:06:03;20.00;83.20
7290;DHT22;3686;52.678;13.252;2022-07-30T08:08:28;20.10;84.60
7290;DHT22;3686;52.678;13.252;2022-07-30T08:10:54;20.10;83.90
7290;DHT22;3686;52.678;13.252;2022-07-30T08:13:19;20.10;85.80
7290;DHT22;3686;52.678;13.252;2022-07-30T08:15:45;20.10;85.20
7290;DHT22;3686;52.678;13.252;2022-07-30T08:18:11;20.20;86.70
7290;DHT22;3686;52.678;13.252;2022-07-30T08:20:37;20.20;86.10
7290;DHT22;3686;52.678;13.252;2022-07-30T08:23:04;20.30;86.60
7290;DHT22;3686;52.678;13.252;2022-07-30T08:25:29;20.40;90.30
7290;DHT22;3686;52.678;13.252;2022-07-30T08:27:55;20.40;90.20
7290;DHT22;3686;52.678;13.252;2022-07-30T08:30:21;20.50;90.00
7290;DHT22;3686;52.678;13.252;2022-07-30T08:32:47;20.50;87.40
7290;DHT22;3686;52.678;13.252;2022-07-30T08:35:13;20.50;85.60
7290;DHT22;3686;52.678;13.252;2022-07-30T08:37:38;20.60;93.20
7290;DHT22;3686;52.678;13.252;2022-07-30T08:40:06;20.60;88.10
7290;DHT22;3686;52.678;13.252;2022-07-30T08:42:33;20.70;90.80
7290;DHT22;3686;52.678;13.252;2022-07-30T08:44:59;20.80;92.60
7290;DHT22;3686;52.678;13.252;2022-07-30T08:47:33;20.90;90.60
7290;DHT22;3686;52.678;13.252;2022-07-30T08:50:00;20.90;87.50
7290;DHT22;3686;52.678;13.252;2022-07-30T08:52:34;21.00;89.00
7290;DHT22;3686;52.678;13.252;2022-07-30T08:55:00;21.00;84.50
7290;DHT22;3686;52.678;13.252;2022-07-30T08:57:30;21.10;87.70
7290;DHT22;3686;52.678;13.252;2022-07-30T09:00:00;21.20;85.80
7290;DHT22;3686;52.678;13.252;2022-07-30T09:02:27;21.10;86.60
7290;DHT22;3686;52.678;13.252;2022-07-30T09:04:54;21.20;88.20
7290;DHT22;3686;52.678;13.252;2022-07-30T09:07:19;21.30;87.60
7290;DHT22;3686;52.678;13.252;2022-07-30T09:09:45;21.40;90.80
7290;DHT22;3686;52.678;13.252;2022-07-30T09:17:48;21.60;85.50
7290;DHT22;3686;52.678;13.252;2022-07-30T09:20:14;21.60;86.30
7290;DHT22;3686;52.678;13.252;2022-07-30T09:22:49;21.60;86.00
7290;DHT22;3686;52.678;13.252;2022-07-30T09:25:15;21.70;85.40
7290;DHT22;3686;52.678;13.252;2022-07-30T09:27:45;21.70;80.90
7290;DHT22;3686;52.678;13.252;2022-07-30T09:30:11;21.70;84.70
7290;DHT22;3686;52.678;13.252;2022-07-30T09:32:51;21.80;90.30
7290;DHT22;3686;52.678;13.252;2022-07-30T09:35:17;21.80;86.10
7290;DHT22;3686;52.678;13.252;2022-07-30T09:37:45;22.00;88.80
7290;DHT22;3686;52.678;13.252;2022-07-30T09:40:16;22.10;89.70
7290;DHT22;3686;52.678;13.252;2022-07-30T09:42:43;22.20;88.30
7290;DHT22;3686;52.678;13.252;2022-07-30T09:45:13;22.30;88.20
7290;DHT22;3686;52.678;13.252;2022-07-30T09:47:40;22.40;86.30
7290;DHT22;3686;52.678;13.252;2022-07-30T09:52:36;22.60;87.20
7290;DHT22;3686;52.678;13.252;2022-07-30T09:55:03;22.80;90.20
7290;DHT22;3686;52.678;13.252;2022-07-30T09:57:29;22.90;89.20
7290;DHT22;3686;52.678;13.252;2022-07-30T09:59:56;23.10;88.60
7290;DHT22;3686;52.678;13.252;2022-07-30T10:02:32;23.30;90.80
7290;DHT22;3686;52.678;13.252;2022-07-30T10:05:12;23.40;87.80
7290;DHT22;3686;52.678;13.252;2022-07-30T10:07:38;23.50;82.70
7290;DHT22;3686;52.678;13.252;2022-07-30T10:10:04;23.70;90.40
7290;DHT22;3686;52.678;13.252;2022-07-30T10:12:32;23.80;88.90
7290;DHT22;3686;52.678;13.252;2022-07-30T10:15:00;24.00;90.80
7290;DHT22;3686;52.678;13.252;2022-07-30T10:17:28;24.10;85.20
7290;DHT22;3686;52.678;13.252;2022-07-30T10:19:56;24.30;85.30
7290;DHT22;3686;52.678;13.252;2022-07-30T10:22:22;24.50;97.50
7290;DHT22;3686;52.678;13.252;2022-07-30T10:24:48;24.70;82.20
7290;DHT22;3686;52.678;13.252;2022-07-30T10:27:15;24.80;83.30
7290;DHT22;3686;52.678;13.252;2022-07-30T10:29:41;24.90;82.20
7290;DHT22;3686;52.678;13.252;2022-07-30T10:32:08;25.00;83.00
7290;DHT22;3686;52.678;13.252;2022-07-30T10:34:33;24.90;86.00
7290;DHT22;3686;52.678;13.252;2022-07-30T10:37:02;25.10;90.70
7290;DHT22;3686;52.678;13.252;2022-07-30T10:39:36;25.10;78.60
7290;DHT22;3686;52.678;13.252;2022-07-30T10:42:19;25.10;84.00
7290;DHT22;3686;52.678;13.252;2022-07-30T10:47:28;25.10;74.10
7290;DHT22;3686;52.678;13.252;2022-07-30T10:50:16;25.20;75.80
7290;DHT22;3686;52.678;13.252;2022-07-30T10:53:00;25.30;76.10
7290;DHT22;3686;52.678;13.252;2022-07-30T10:55:32;25.50;75.20
7290;DHT22;3686;52.678;13.252;2022-07-30T11:00:33;25.80;74.10
7290;DHT22;3686;52.678;13.252;2022-07-30T11:05:51;26.00;73.10
7290;DHT22;3686;52.678;13.252;2022-07-30T11:08:37;26.10;73.50
7290;DHT22;3686;52.678;13.252;2022-07-30T11:11:05;26.40;70.70
7290;DHT22;3686;52.678;13.252;2022-07-30T11:13:57;26.50;69.90
7290;DHT22;3686;52.678;13.252;2022-07-30T11:16:56;26.70;67.10
7290;DHT22;3686;52.678;13.252;2022-07-30T11:19:17;26.80;69.30
7290;DHT22;3686;52.678;13.252;2022-07-30T11:24:51;27.10;70.70
7290;DHT22;3686;52.678;13.252;2022-07-30T11:30:02;27.60;73.70
7290;DHT22;3686;52.678;13.252;2022-07-30T11:32:30;27.80;70.70
7290;DHT22;3686;52.678;13.252;2022-07-30T11:35:16;28.00;68.00
7290;DHT22;3686;52.678;13.252;2022-07-30T11:38:10;28.00;67.70
7290;DHT22;3686;52.678;13.252;2022-07-30T11:43:25;28.40;62.50
7290;DHT22;3686;52.678;13.252;2022-07-30T11:46:13;28.40;62.70
7290;DHT22;3686;52.678;13.252;2022-07-30T11:49:02;28.40;62.50
7290;DHT22;3686;52.678;13.252;2022-07-30T11:51:43;28.50;57.60
7290;DHT22;3686;52.678;13.252;2022-07-30T11:54:09;28.60;59.90
7290;DHT22;3686;52.678;13.252;2022-07-30T11:56:36;28.80;61.00
7290;DHT22;3686;52.678;13.252;2022-07-30T12:01:28;29.10;58.80
7290;DHT22;3686;52.678;13.252;2022-07-30T12:03:55;29.30;54.70
7290;DHT22;3686;52.678;13.252;2022-07-30T12:06:21;29.40;52.70
7290;DHT22;3686;52.678;13.252;2022-07-30T12:08:50;29.60;54.00
7290;DHT22;3686;52.678;13.252;2022-07-30T12:11:16;29.70;49.40
7290;DHT22;3686;52.678;13.252;2022-07-30T12:13:43;29.70;49.80
7290;DHT22;3686;52.678;13.252;2022-07-30T12:16:19;29.90;49.80
7290;DHT22;3686;52.678;13.252;2022-07-30T12:18:45;30.00;50.80
7290;DHT22;3686;52.678;13.252;2022-07-30T12:21:11;30.10;49.20
7290;DHT22;3686;52.678;13.252;2022-07-30T12:23:41;30.10;46.70
7290;DHT22;3686;52.678;13.252;2022-07-30T12:26:18;30.20;46.30
7290;DHT22;3686;52.678;13.252;2022-07-30T12:28:44;30.10;45.90
7290;DHT22;3686;52.678;13.252;2022-07-30T12:31:14;30.10;41.60
7290;DHT22;3686;52.678;13.252;2022-07-30T12:33:40;29.90;56.60
7290;DHT22;3686;52.678;13.252;2022-07-30T12:36:06;29.50;40.10
7290;DHT22;3686;52.678;13.252;2022-07-30T12:38:43;29.40;39.00
7290;DHT22;3686;52.678;13.252;2022-07-30T12:41:14;29.40;36.10
7290;DHT22;3686;52.678;13.252;2022-07-30T12:43:47;29.40;36.70
7290;DHT22;3686;52.678;13.252;2022-07-30T12:46:19;29.30;36.00
7290;DHT22;3686;52.678;13.252;2022-07-30T12:48:53;29.10;33.50
7290;DHT22;3686;52.678;13.252;2022-07-30T12:51:21;28.80;34.60
7290;DHT22;3686;52.678;13.252;2022-07-30T12:53:48;28.50;32.10
7290;DHT22;3686;52.678;13.252;2022-07-30T12:56:23;28.50;30.40
7290;DHT22;3686;52.678;13.252;2022-07-30T12:58:49;28.60;33.40
7290;DHT22;3686;52.678;13.252;2022-07-30T13:01:15;28.90;34.50
7290;DHT22;3686;52.678;13.252;2022-07-30T13:03:41;29.30;32.40
7290;DHT22;3686;52.678;13.252;2022-07-30T13:06:18;29.40;37.50
7290;DHT22;3686;52.678;13.252;2022-07-30T13:11:12;29.70;32.00
7290;DHT22;3686;52.678;13.252;2022-07-30T13:13:38;29.70;31.70
7290;DHT22;3686;52.678;13.252;2022-07-30T13:16:05;29.50;30.70
7290;DHT22;3686;52.678;13.252;2022-07-30T13:18:33;29.40;27.50
7290;DHT22;3686;52.678;13.252;2022-07-30T13:20:59;29.10;27.20
7290;DHT22;3686;52.678;13.252;2022-07-30T13:23:26;28.80;26.50
7290;DHT22;3686;52.678;13.252;2022-07-30T13:25:53;28.70;25.90
7290;DHT22;3686;52.678;13.252;2022-07-30T13:28:19;28.70;26.10
7290;DHT22;3686;52.678;13.252;2022-07-30T13:30:45;28.60;24.20
7290;DHT22;3686;52.678;13.252;2022-07-30T13:33:11;28.50;23.50
7290;DHT22;3686;52.678;13.252;2022-07-30T13:35:37;28.60;24.80
7290;DHT22;3686;52.678;13.252;2022-07-30T13:38:03;28.80;26.90
7290;DHT22;3686;52.678;13.252;2022-07-30T13:40:31;28.90;26.30
7290;DHT22;3686;52.678;13.252;2022-07-30T13:43:00;29.10;24.70
7290;DHT22;3686;52.678;13.252;2022-07-30T13:45:27;29.20;26.80
7290;DHT22;3686;52.678;13.252;2022-07-30T13:47:53;29.60;28.00
7290;DHT22;3686;52.678;13.252;2022-07-30T13:50:19;29.60;26.90
7290;DHT22;3686;52.678;13.252;2022-07-30T13:52:45;29.40;26.60
7290;DHT22;3686;52.678;13.252;2022-07-30T13:55:10;29.20;26.10
7290;DHT22;3686;52.678;13.252;2022-07-30T13:57:36;29.10;27.30
7290;DHT22;3686;52.678;13.252;2022-07-30T14:00:04;29.10;26.00
7290;DHT22;3686;52.678;13.252;2022-07-30T14:02:31;29.00;23.80
7290;DHT22;3686;52.678;13.252;2022-07-30T14:04:56;29.10;24.50
7290;DHT22;3686;52.678;13.252;2022-07-30T14:07:22;29.40;24.40
7290;DHT22;3686;52.678;13.252;2022-07-30T14:09:48;29.60;25.40
7290;DHT22;3686;52.678;13.252;2022-07-30T14:12:14;29.90;25.60
7290;DHT22;3686;52.678;13.252;2022-07-30T14:14:40;30.20;27.30
7290;DHT22;3686;52.678;13.252;2022-07-30T14:17:05;30.50;27.60
7290;DHT22;3686;52.678;13.252;2022-07-30T14:19:31;30.70;27.60
7290;DHT22;3686;52.678;13.252;2022-07-30T14:21:56;30.90;29.10
7290;DHT22;3686;52.678;13.252;2022-07-30T14:24:22;30.90;29.20
7290;DHT22;3686;52.678;13.252;2022-07-30T14:26:48;30.70;27.40
7290;DHT22;3686;52.678;13.252;2022-07-30T14:29:15;30.30;27.30
7290;DHT22;3686;52.678;13.252;2022-07-30T14:31:42;29.90;24.90
7290;DHT22;3686;52.678;13.252;2022-07-30T14:34:08;29.50;22.80
7290;DHT22;3686;52.678;13.252;2022-07-30T14:36:34;29.30;24.00
7290;DHT22;3686;52.678;13.252;2022-07-30T14:39:02;29.40;21.80
7290;DHT22;3686;52.678;13.252;2022-07-30T14:41:29;29.60;22.20
7290;DHT22;3686;52.678;13.252;2022-07-30T14:43:55;29.90;24.90
7290;DHT22;3686;52.678;13.252;2022-07-30T14:46:21;30.10;23.80
7290;DHT22;3686;52.678;13.252;2022-07-30T14:48:48;30.40;24.10
7290;DHT22;3686;52.678;13.252;2022-07-30T14:51:14;30.40;23.60
7290;DHT22;3686;52.678;13.252;2022-07-30T14:53:40;30.20;21.90
7290;DHT22;3686;52.678;13.252;2022-07-30T14:56:06;30.00;21.80
7290;DHT22;3686;52.678;13.252;2022-07-30T14:58:33;29.80;21.90
7290;DHT22;3686;52.678;13.252;2022-07-30T15:00:58;29.60;21.10
7290;DHT22;3686;52.678;13.252;2022-07-30T15:03:24;29.30;19.50
7290;DHT22;3686;52.678;13.252;2022-07-30T15:05:50;29.00;18.40
7290;DHT22;3686;52.678;13.252;2022-07-30T15:08:15;28.80;17.60
7290;DHT22;3686;52.678;13.252;2022-07-30T15:10:41;28.50;15.20
7290;DHT22;3686;52.678;13.252;2022-07-30T15:13:07;28.20;14.70
7290;DHT22;3686;52.678;13.252;2022-07-30T15:15:33;28.00;14.20
7290;DHT22;3686;52.678;13.252;2022-07-30T15:17:59;27.90;14.10
7290;DHT22;3686;52.678;13.252;2022-07-30T15:20:25;27.80;14.00
7290;DHT22;3686;52.678;13.252;2022-07-30T15:22:51;27.70;14.20
7290;DHT22;3686;52.678;13.252;2022-07-30T15:25:17;27.70;13.60
7290;DHT22;3686;52.678;13.252;2022-07-30T15:27:42;27.80;15.40
7290;DHT22;3686;52.678;13.252;2022-07-30T15:30:09;27.90;15.20
7290;DHT22;3686;52.678;13.252;2022-07-30T15:32:35;28.00;14.60
7290;DHT22;3686;52.678;13.252;2022-07-30T15:35:01;28.00;13.70
7290;DHT22;3686;52.678;13.252;2022-07-30T15:37:27;27.90;12.60
7290;DHT22;3686;52.678;13.252;2022-07-30T15:39:53;27.70;15.30
7290;DHT22;3686;52.678;13.252;2022-07-30T15:42:18;27.50;13.00
7290;DHT22;3686;52.678;13.252;2022-07-30T15:44:44;27.50;12.90
7290;DHT22;3686;52.678;13.252;2022-07-30T15:47:09;27.50;12.60
7290;DHT22;3686;52.678;13.252;2022-07-30T15:49:35;27.50;11.60
7290;DHT22;3686;52.678;13.252;2022-07-30T15:52:01;27.50;11.90
7290;DHT22;3686;52.678;13.252;2022-07-30T15:54:26;27.60;11.90
7290;DHT22;3686;52.678;13.252;2022-07-30T15:56:53;27.60;13.00
7290;DHT22;3686;52.678;13.252;2022-07-30T15:59:19;27.70;12.00
7290;DHT22;3686;52.678;13.252;2022-07-30T16:01:46;27.60;11.60
7290;DHT22;3686;52.678;13.252;2022-07-30T16:04:13;27.60;10.20
7290;DHT22;3686;52.678;13.252;2022-07-30T16:06:39;27.60;23.90
7290;DHT22;3686;52.678;13.252;2022-07-30T16:09:06;27.60;13.50
7290;DHT22;3686;52.678;13.252;2022-07-30T16:11:32;27.60;12.20
7290;DHT22;3686;52.678;13.252;2022-07-30T16:13:58;27.60;10.50
7290;DHT22;3686;52.678;13.252;2022-07-30T16:16:24;27.50;9.60
7290;DHT22;3686;52.678;13.252;2022-07-30T16:18:50;27.50;9.40
7290;DHT22;3686;52.678;13.252;2022-07-30T16:21:15;27.40;10.20
7290;DHT22;3686;52.678;13.252;2022-07-30T16:23:43;27.40;9.70
7290;DHT22;3686;52.678;13.252;2022-07-30T16:26:09;27.30;10.00